Time;durP1;ratioP1;P1;durP2;ratioP2;P2;SDS_P1;SDS_P2;PMS_P1;PMS_P2;Temp;Humidity;BMP_temperature;BMP_pressure;BME280_temperature;BME280_humidity;BME280_pressure;Samples;Min_cycle;Max_cycle;Signal;HPM_P1;HPM_P2
2022/07/24 00:01:43;;;;;;;;;;;;;;;25.00;65.06;99650.00;5055254;28;19960;-70
2022/07/24 00:04:12;;;;;;;;;;;;;;;24.91;65.49;99659.19;5054928;28;20024;-70
2022/07/24 00:06:42;;;;;;;;;;;;;;;24.83;65.41;99653.63;5054879;28;19925;-70
2022/07/24 00:09:10;;;;;;;;;;;;;;;24.80;65.65;99648.56;5054837;28;20016;-70
2022/07/24 00:11:39;;;;;;;;;;;;;;;24.78;65.82;99649.59;5054807;28;19925;-70
2022/07/24 00:14:07;;;;;;;;;;;;;;;24.74;65.81;99642.84;5054754;28;19929;-70
2022/07/24 00:16:38;;;;;;;;;;;;;;;24.71;65.52;99643.88;5055102;28;20320;-70
2022/07/24 00:19:06;;;;;;;;;;;;;;;24.57;65.85;99643.84;5054645;28;19932;-70
2022/07/24 00:21:35;;;;;;;;;;;;;;;24.43;66.07;99649.00;5054735;28;19932;-70
2022/07/24 00:24:05;;;;;;;;;;;;;;;24.38;66.47;99640.59;5054921;28;20062;-70
2022/07/24 00:26:34;;;;;;;;;;;;;;;24.33;66.63;99645.25;5054922;28;20432;-70
2022/07/24 00:29:03;;;;;;;;;;;;;;;24.41;66.71;99649.09;5054471;28;20382;-70
2022/07/24 00:31:32;;;;;;;;;;;;;;;24.47;66.74;99646.13;5054762;28;20072;-70
2022/07/24 00:34:01;;;;;;;;;;;;;;;24.52;66.72;99640.66;5054351;28;19936;-70
2022/07/24 00:36:30;;;;;;;;;;;;;;;24.52;66.85;99638.84;5054360;28;19932;-70
2022/07/24 00:38:58;;;;;;;;;;;;;;;24.46;66.83;99639.22;5054295;28;19960;-70
2022/07/24 00:41:28;;;;;;;;;;;;;;;24.30;67.21;99638.44;5054164;28;19924;-70
2022/07/24 00:44:04;;;;;;;;;;;;;;;24.21;67.38;99635.53;5054652;28;20293;-70
2022/07/24 00:46:33;;;;;;;;;;;;;;;24.16;67.54;99646.22;5054605;28;19925;-70
2022/07/24 00:49:03;;;;;;;;;;;;;;;24.08;67.91;99652.78;5053975;28;19999;-70
2022/07/24 00:51:32;;;;;;;;;;;;;;;24.02;67.84;99653.09;5054372;28;20015;-70
2022/07/24 00:54:01;;;;;;;;;;;;;;;23.90;68.33;99655.44;5054099;28;19994;-70
2022/07/24 00:56:31;;;;;;;;;;;;;;;23.71;68.80;99654.78;5053766;28;20341;-69
2022/07/24 00:59:00;;;;;;;;;;;;;;;23.38;69.86;99656.59;5054060;28;19968;-68
2022/07/24 01:01:29;;;;;;;;;;;;;;;23.31;70.59;99660.44;5054232;28;20375;-69
2022/07/24 01:03:57;;;;;;;;;;;;;;;23.24;70.85;99659.06;5053941;28;19925;-69
2022/07/24 01:06:26;;;;;;;;;;;;;;;23.05;71.70;99669.63;5054254;28;19925;-69
2022/07/24 01:08:55;;;;;;;;;;;;;;;23.00;72.33;99665.56;5054188;28;19924;-69
2022/07/24 01:11:23;;;;;;;;;;;;;;;23.09;72.39;99665.06;5053795;28;19978;-69
2022/07/24 01:13:53;;;;;;;;;;;;;;;23.21;71.97;99659.22;5053893;28;19936;-69
2022/07/24 01:16:22;;;;;;;;;;;;;;;23.26;71.84;99657.22;5053859;28;19929;-69
2022/07/24 01:18:50;;;;;;;;;;;;;;;23.27;71.95;99648.50;5053797;28;19925;-70
2022/07/24 01:21:20;;;;;;;;;;;;;;;23.32;71.94;99651.72;5053637;28;19931;-69
2022/07/24 01:23:49;;;;;;;;;;;;;;;23.33;72.09;99649.00;5054091;28;19924;-69
2022/07/24 01:26:17;;;;;;;;;;;;;;;23.36;72.12;99636.78;5053740;28;19974;-70
2022/07/24 01:28:46;;;;;;;;;;;;;;;23.36;72.22;99652.41;5054003;28;20284;-69
2022/07/24 01:31:14;;;;;;;;;;;;;;;23.35;72.06;99651.56;5053945;28;19967;-69
2022/07/24 01:33:43;;;;;;;;;;;;;;;23.34;71.83;99649.84;5053631;28;19929;-69
2022/07/24 01:36:11;;;;;;;;;;;;;;;23.24;72.18;99646.06;5053715;28;19971;-69
2022/07/24 01:38:41;;;;;;;;;;;;;;;23.26;72.24;99646.81;5053942;28;19925;-69
2022/07/24 01:41:09;;;;;;;;;;;;;;;23.32;72.03;99643.88;5053581;28;19932;-69
2022/07/24 01:43:39;;;;;;;;;;;;;;;23.39;71.90;99642.66;5053877;28;20267;-70
2022/07/24 01:46:08;;;;;;;;;;;;;;;23.41;71.75;99648.63;5053900;28;19967;-70
2022/07/24 01:48:36;;;;;;;;;;;;;;;23.41;71.78;99651.25;5053841;28;20291;-70
2022/07/24 01:51:05;;;;;;;;;;;;;;;23.39;71.71;99652.25;5053501;28;19971;-70
2022/07/24 01:53:34;;;;;;;;;;;;;;;23.37;71.71;99654.91;5053439;28;19968;-70
2022/07/24 01:56:04;;;;;;;;;;;;;;;23.33;71.80;99648.16;5053260;28;20326;-70
2022/07/24 01:58:32;;;;;;;;;;;;;;;23.39;71.66;99650.50;5053822;28;20370;-70
2022/07/24 02:01:03;;;;;;;;;;;;;;;23.33;71.79;99649.00;5055615;28;20382;-69
2022/07/24 02:03:31;;;;;;;;;;;;;;;23.32;71.94;99646.50;5057575;28;19925;-69
2022/07/24 02:06:00;;;;;;;;;;;;;;;23.38;71.67;99646.19;5057223;28;19979;-70
2022/07/24 02:08:28;;;;;;;;;;;;;;;23.49;71.46;99637.81;5057498;28;19984;-70
2022/07/24 02:10:57;;;;;;;;;;;;;;;23.58;71.05;99632.94;5057129;28;19932;-70
2022/07/24 02:13:27;;;;;;;;;;;;;;;23.62;70.85;99629.22;5057339;28;20260;-69
2022/07/24 02:15:58;;;;;;;;;;;;;;;23.63;70.98;99636.13;5057113;28;19974;-69
2022/07/24 02:18:26;;;;;;;;;;;;;;;23.63;71.09;99636.13;5057820;28;20362;-69
2022/07/24 02:20:55;;;;;;;;;;;;;;;23.60;71.03;99633.69;5056908;28;19974;-69
2022/07/24 02:23:23;;;;;;;;;;;;;;;23.54;70.95;99641.00;5057189;28;20289;-69
2022/07/24 02:25:52;;;;;;;;;;;;;;;23.46;71.27;99644.03;5056831;28;19979;-69
2022/07/24 02:28:20;;;;;;;;;;;;;;;23.38;71.19;99643.59;5056822;28;19925;-69
2022/07/24 02:30:51;;;;;;;;;;;;;;;23.36;71.19;99645.44;5057026;28;19925;-69
2022/07/24 02:33:19;;;;;;;;;;;;;;;23.37;71.07;99644.50;5056794;28;20409;-69
2022/07/24 02:35:48;;;;;;;;;;;;;;;23.31;71.39;99640.44;5056653;28;19929;-69
2022/07/24 02:38:16;;;;;;;;;;;;;;;23.31;71.34;99644.81;5056632;28;19932;-69
2022/07/24 02:40:45;;;;;;;;;;;;;;;23.22;71.18;99640.09;5056495;28;19931;-69
2022/07/24 02:43:13;;;;;;;;;;;;;;;23.19;71.39;99645.44;5056900;28;19924;-69
2022/07/24 02:45:42;;;;;;;;;;;;;;;23.15;71.43;99649.16;5057022;28;19932;-69
2022/07/24 02:48:19;;;;;;;;;;;;;;;23.09;71.54;99646.84;5056819;28;20440;-69
2022/07/24 02:50:48;;;;;;;;;;;;;;;23.11;71.28;99647.59;5056434;28;19961;-69
2022/07/24 02:53:17;;;;;;;;;;;;;;;23.00;71.36;99644.72;5056984;28;19994;-69
2022/07/24 02:55:45;;;;;;;;;;;;;;;22.89;71.81;99647.06;5056074;28;19951;-69
2022/07/24 02:58:13;;;;;;;;;;;;;;;22.79;72.05;99645.84;5056315;28;19928;-69
2022/07/24 03:00:42;;;;;;;;;;;;;;;22.85;72.14;99645.50;5056164;28;19924;-69
2022/07/24 03:03:11;;;;;;;;;;;;;;;22.87;72.28;99660.13;5056114;28;19970;-69
2022/07/24 03:05:41;;;;;;;;;;;;;;;22.90;72.39;99653.94;5056342;28;20259;-69
2022/07/24 03:08:10;;;;;;;;;;;;;;;22.89;72.59;99655.69;5056427;28;19986;-69
2022/07/24 03:10:39;;;;;;;;;;;;;;;22.93;72.41;99653.78;5056336;28;19994;-69
2022/07/24 03:13:08;;;;;;;;;;;;;;;22.92;72.34;99654.69;5056487;28;19955;-69
2022/07/24 03:15:36;;;;;;;;;;;;;;;22.86;72.75;99652.41;5055891;28;19975;-69
2022/07/24 03:18:05;;;;;;;;;;;;;;;22.90;72.86;99662.59;5055922;28;20386;-69
2022/07/24 03:20:52;;;;;;;;;;;;;;;22.90;73.05;99665.19;5056279;28;19947;-69
2022/07/24 03:23:20;;;;;;;;;;;;;;;22.97;72.88;99676.97;5056041;28;20435;-69
2022/07/24 03:25:49;;;;;;;;;;;;;;;22.99;72.77;99669.06;5055960;28;19967;-69
2022/07/24 03:28:17;;;;;;;;;;;;;;;23.03;72.73;99675.81;5055698;28;19931;-69
2022/07/24 03:30:46;;;;;;;;;;;;;;;23.16;72.29;99682.06;5055949;28;19954;-69
2022/07/24 03:33:14;;;;;;;;;;;;;;;23.21;72.08;99680.06;5055600;28;20020;-69
2022/07/24 03:35:43;;;;;;;;;;;;;;;23.29;71.76;99677.91;5055838;28;20030;-69
2022/07/24 03:38:12;;;;;;;;;;;;;;;23.32;71.55;99685.56;5056647;28;20314;-69
2022/07/24 03:40:41;;;;;;;;;;;;;;;23.37;71.52;99686.19;5055529;28;19932;-69
2022/07/24 03:43:09;;;;;;;;;;;;;;;23.45;71.29;99689.22;5055325;28;19925;-69
2022/07/24 03:45:38;;;;;;;;;;;;;;;23.45;71.06;99683.16;5055605;28;19925;-69
2022/07/24 03:48:07;;;;;;;;;;;;;;;23.51;71.13;99694.13;5055287;28;19924;-69
2022/07/24 03:50:36;;;;;;;;;;;;;;;23.58;70.33;99700.69;5055250;28;19925;-69
2022/07/24 03:53:05;;;;;;;;;;;;;;;23.61;69.89;99692.69;5055214;28;20035;-69
2022/07/24 03:55:36;;;;;;;;;;;;;;;23.61;69.89;99695.28;5054728;28;19979;-70
2022/07/24 03:58:04;;;;;;;;;;;;;;;23.67;69.67;99696.75;5055054;28;20386;-69
2022/07/24 04:00:33;;;;;;;;;;;;;;;23.75;69.54;99687.59;5055908;28;19978;-69
2022/07/24 04:03:01;;;;;;;;;;;;;;;23.75;69.52;99687.59;5055511;28;19924;-69
2022/07/24 04:05:30;;;;;;;;;;;;;;;23.72;69.72;99685.16;5054995;28;20446;-69
2022/07/24 04:07:59;;;;;;;;;;;;;;;23.79;69.47;99689.09;5055122;28;19932;-69
2022/07/24 04:10:33;;;;;;;;;;;;;;;23.89;68.79;99695.50;5054978;28;19924;-69
2022/07/24 04:13:03;;;;;;;;;;;;;;;23.93;68.25;99691.78;5055174;28;19924;-69
2022/07/24 04:15:31;;;;;;;;;;;;;;;23.99;67.88;99695.84;5056081;28;20255;-69
2022/07/24 04:18:00;;;;;;;;;;;;;;;24.05;67.53;99689.41;5054938;28;19925;-69
2022/07/24 04:20:28;;;;;;;;;;;;;;;24.11;67.15;99696.94;5054746;28;19931;-70
2022/07/24 04:22:57;;;;;;;;;;;;;;;24.16;66.83;99700.16;5054240;28;19931;-69
2022/07/24 04:25:25;;;;;;;;;;;;;;;24.19;66.70;99697.34;5054930;28;19992;-70
2022/07/24 04:27:54;;;;;;;;;;;;;;;24.22;66.61;99697.19;5055023;28;20355;-69
2022/07/24 04:30:24;;;;;;;;;;;;;;;24.24;66.35;99697.94;5054622;28;19925;-70
2022/07/24 04:32:52;;;;;;;;;;;;;;;24.31;66.28;99707.09;5054573;28;20371;-70
2022/07/24 04:35:21;;;;;;;;;;;;;;;24.34;65.98;99706.94;5054444;28;19974;-70
2022/07/24 04:37:49;;;;;;;;;;;;;;;24.38;65.96;99708.44;5054657;28;20019;-70
2022/07/24 04:40:18;;;;;;;;;;;;;;;24.41;65.86;99710.88;5054409;28;19925;-70
2022/07/24 04:42:46;;;;;;;;;;;;;;;24.46;65.79;99716.69;5054424;28;19971;-70
2022/07/24 04:45:15;;;;;;;;;;;;;;;24.47;65.43;99721.81;5054321;28;20440;-70
2022/07/24 04:47:45;;;;;;;;;;;;;;;24.50;65.36;99723.38;5054191;28;19964;-70
2022/07/24 04:50:13;;;;;;;;;;;;;;;24.51;65.45;99720.72;5054241;28;19929;-70
2022/07/24 04:52:43;;;;;;;;;;;;;;;24.53;65.03;99723.22;5054168;28;20264;-70
2022/07/24 04:55:12;;;;;;;;;;;;;;;24.55;64.85;99732.66;5054114;28;19924;-70
2022/07/24 04:57:41;;;;;;;;;;;;;;;24.59;64.86;99728.13;5054005;28;19948;-70
2022/07/24 05:00:11;;;;;;;;;;;;;;;24.63;64.68;99737.44;5054060;28;19939;-70
2022/07/24 05:02:40;;;;;;;;;;;;;;;24.70;64.81;99741.38;5054290;28;20440;-70
2022/07/24 05:05:10;;;;;;;;;;;;;;;24.78;64.48;99739.22;5054325;28;19929;-70
2022/07/24 05:07:39;;;;;;;;;;;;;;;24.82;64.06;99739.84;5053949;28;19967;-69
2022/07/24 05:10:08;;;;;;;;;;;;;;;24.85;63.86;99750.97;5053917;28;19925;-70
2022/07/24 05:12:36;;;;;;;;;;;;;;;24.88;63.82;99749.97;5053897;28;19979;-70
2022/07/24 05:15:06;;;;;;;;;;;;;;;24.94;63.75;99753.06;5053911;28;19928;-69
2022/07/24 05:17:35;;;;;;;;;;;;;;;25.04;63.77;99756.81;5053895;28;19948;-70
2022/07/24 05:20:03;;;;;;;;;;;;;;;25.09;63.53;99752.16;5053785;28;19975;-69
2022/07/24 05:22:33;;;;;;;;;;;;;;;25.14;63.27;99757.97;5053706;28;19925;-69
2022/07/24 05:25:02;;;;;;;;;;;;;;;25.19;62.87;99755.88;5054104;28;19968;-70
2022/07/24 05:27:30;;;;;;;;;;;;;;;25.28;62.95;99757.97;5054152;28;19955;-69
2022/07/24 05:29:59;;;;;;;;;;;;;;;25.35;62.87;99762.81;5053693;28;19925;-70
2022/07/24 05:32:27;;;;;;;;;;;;;;;25.37;62.41;99758.34;5054006;28;20371;-68
2022/07/24 05:34:55;;;;;;;;;;;;;;;25.31;61.86;99768.22;5054046;28;20420;-69
2022/07/24 05:37:24;;;;;;;;;;;;;;;25.28;62.10;99765.81;5058694;28;20359;-69
2022/07/24 05:39:54;;;;;;;;;;;;;;;25.35;62.03;99766.28;5057657;28;19924;-69
2022/07/24 05:42:25;;;;;;;;;;;;;;;25.40;61.75;99773.84;5057977;28;20404;-69
2022/07/24 05:44:54;;;;;;;;;;;;;;;25.38;61.64;99775.72;5058185;28;19948;-69
2022/07/24 05:47:22;;;;;;;;;;;;;;;25.36;61.34;99777.59;5057915;28;19979;-69
2022/07/24 05:49:51;;;;;;;;;;;;;;;25.40;61.48;99789.53;5056536;28;19925;-69
2022/07/24 05:52:19;;;;;;;;;;;;;;;25.48;61.74;99787.34;5057506;28;19925;-69
2022/07/24 05:54:47;;;;;;;;;;;;;;;25.51;61.26;99782.75;5057446;28;19924;-70
2022/07/24 05:57:17;;;;;;;;;;;;;;;25.67;61.31;99787.91;5057173;28;20099;-70
2022/07/24 05:59:46;;;;;;;;;;;;;;;25.83;61.08;99788.66;5057372;28;20019;-70
2022/07/24 06:02:14;;;;;;;;;;;;;;;25.99;60.03;99784.13;5057678;28;19925;-69
2022/07/24 06:04:43;;;;;;;;;;;;;;;26.10;59.75;99791.34;5057596;28;19925;-69
2022/07/24 06:07:12;;;;;;;;;;;;;;;26.21;59.67;99796.75;5057558;28;20393;-69
2022/07/24 06:09:40;;;;;;;;;;;;;;;26.35;59.22;99797.56;5056286;28;20031;-68
2022/07/24 06:12:09;;;;;;;;;;;;;;;26.38;58.73;99792.16;5057053;28;20003;-69
2022/07/24 06:14:39;;;;;;;;;;;;;;;26.43;58.69;99797.94;5056180;28;19962;-70
2022/07/24 06:17:07;;;;;;;;;;;;;;;26.45;58.38;99798.66;5057025;28;20039;-69
2022/07/24 06:19:36;;;;;;;;;;;;;;;26.48;58.11;99803.72;5057313;28;19932;-69
2022/07/24 06:22:05;;;;;;;;;;;;;;;26.59;58.00;99795.16;5056938;28;19975;-68
2022/07/24 06:24:33;;;;;;;;;;;;;;;26.73;57.41;99802.13;5056859;28;19970;-69
2022/07/24 06:27:03;;;;;;;;;;;;;;;26.80;56.92;99793.81;5057152;28;19995;-68
2022/07/24 06:29:42;;;;;;;;;;;;;;;26.91;57.19;99806.19;5056851;28;19925;-69
2022/07/24 06:32:10;;;;;;;;;;;;;;;26.97;56.49;99803.19;5057041;28;19929;-69
2022/07/24 06:34:38;;;;;;;;;;;;;;;27.04;55.78;99796.59;5056754;28;19952;-65
2022/07/24 06:37:07;;;;;;;;;;;;;;;27.10;55.18;99806.66;5057158;28;19951;-69
2022/07/24 06:39:35;;;;;;;;;;;;;;;27.07;54.77;99797.22;5055913;28;19983;-67
2022/07/24 06:42:04;;;;;;;;;;;;;;;27.06;54.56;99799.94;5056620;28;19929;-69
2022/07/24 06:44:33;;;;;;;;;;;;;;;27.11;54.62;99805.72;5056564;28;19924;-67
2022/07/24 06:47:03;;;;;;;;;;;;;;;27.12;53.80;99810.00;5056378;28;19952;-69
2022/07/24 06:49:32;;;;;;;;;;;;;;;27.19;53.51;99812.13;5056731;28;19931;-68
2022/07/24 06:52:00;;;;;;;;;;;;;;;27.16;52.87;99806.28;5057033;28;19925;-68
2022/07/24 06:54:29;;;;;;;;;;;;;;;27.18;53.00;99810.47;5056668;28;19978;-68
2022/07/24 06:56:57;;;;;;;;;;;;;;;27.14;52.29;99808.97;5056158;28;20351;-69
2022/07/24 06:59:26;;;;;;;;;;;;;;;27.23;52.22;99812.78;5056531;28;19925;-68
2022/07/24 07:01:54;;;;;;;;;;;;;;;27.30;51.94;99819.28;5056172;28;19932;-68
2022/07/24 07:04:24;;;;;;;;;;;;;;;27.43;51.81;99809.66;5056126;28;19932;-68
2022/07/24 07:06:53;;;;;;;;;;;;;;;27.57;51.12;99822.69;5054937;28;19925;-68
2022/07/24 07:09:22;;;;;;;;;;;;;;;27.61;50.69;99818.91;5056075;28;19932;-69
2022/07/24 07:11:50;;;;;;;;;;;;;;;27.73;50.18;99823.31;5055938;28;20015;-69
2022/07/24 07:14:20;;;;;;;;;;;;;;;27.77;50.03;99816.91;5055266;28;19925;-68
2022/07/24 07:16:49;;;;;;;;;;;;;;;27.77;49.48;99814.28;5055954;28;19925;-68
2022/07/24 07:19:17;;;;;;;;;;;;;;;27.82;49.54;99806.94;5055865;28;19975;-69
2022/07/24 07:21:47;;;;;;;;;;;;;;;27.79;49.42;99811.53;5056091;28;20367;-68
2022/07/24 07:24:16;;;;;;;;;;;;;;;27.64;49.12;99810.81;5055646;28;20367;-69
2022/07/24 07:26:44;;;;;;;;;;;;;;;27.54;48.99;99811.56;5056032;28;20290;-68
2022/07/24 07:29:12;;;;;;;;;;;;;;;27.58;49.53;99813.03;5055657;28;19925;-68
2022/07/24 07:31:41;;;;;;;;;;;;;;;27.67;48.66;99818.47;5055901;28;20429;-69
2022/07/24 07:34:09;;;;;;;;;;;;;;;27.77;48.61;99811.66;5056130;28;19955;-68
2022/07/24 07:36:38;;;;;;;;;;;;;;;27.85;48.69;99822.47;5055490;28;20390;-69
2022/07/24 07:39:08;;;;;;;;;;;;;;;27.90;48.36;99820.38;5055546;28;19970;-67
2022/07/24 07:41:36;;;;;;;;;;;;;;;28.00;48.20;99830.25;5055440;28;19974;-69
2022/07/24 07:44:05;;;;;;;;;;;;;;;28.14;47.71;99827.50;5055318;28;19925;-68
2022/07/24 07:46:35;;;;;;;;;;;;;;;28.22;47.62;99827.81;5055698;28;19925;-69
2022/07/24 07:49:04;;;;;;;;;;;;;;;28.20;47.27;99827.06;5055270;28;19929;-69
2022/07/24 07:51:33;;;;;;;;;;;;;;;28.23;46.96;99819.81;5054427;28;19924;-68
2022/07/24 07:54:02;;;;;;;;;;;;;;;28.14;46.28;99840.63;5055450;28;19975;-69
2022/07/24 07:56:32;;;;;;;;;;;;;;;28.10;45.51;99837.38;5054835;28;19951;-69
2022/07/24 07:59:00;;;;;;;;;;;;;;;28.14;45.40;99838.84;5053553;28;19983;-68
2022/07/24 08:01:29;;;;;;;;;;;;;;;28.16;45.08;99836.09;5054328;28;20027;-69
2022/07/24 08:03:58;;;;;;;;;;;;;;;28.27;45.15;99833.53;5052166;28;20397;-68
2022/07/24 08:06:27;;;;;;;;;;;;;;;28.37;44.84;99831.94;5053993;28;20374;-69
2022/07/24 08:08:57;;;;;;;;;;;;;;;28.37;44.83;99835.41;5054065;28;19931;-68
2022/07/24 08:11:26;;;;;;;;;;;;;;;28.31;44.59;99832.41;5054154;28;20239;-68
2022/07/24 08:13:56;;;;;;;;;;;;;;;28.42;44.51;99835.94;5054284;28;19924;-68
2022/07/24 08:16:25;;;;;;;;;;;;;;;28.39;43.87;99843.19;5053938;28;19925;-68
2022/07/24 08:18:53;;;;;;;;;;;;;;;28.37;43.97;99848.56;5054055;28;19939;-68
2022/07/24 08:21:22;;;;;;;;;;;;;;;28.21;43.48;99847.13;5053943;28;20409;-67
2022/07/24 08:23:50;;;;;;;;;;;;;;;28.05;44.14;99849.16;5053694;28;19925;-68
2022/07/24 08:26:19;;;;;;;;;;;;;;;28.13;43.98;99849.44;5054338;28;19929;-68
2022/07/24 08:28:47;;;;;;;;;;;;;;;28.23;43.63;99851.31;5053760;28;19951;-68
2022/07/24 08:31:17;;;;;;;;;;;;;;;28.35;43.72;99841.72;5054262;28;19983;-66
2022/07/24 08:33:45;;;;;;;;;;;;;;;28.50;43.42;99852.00;5053948;28;19930;-68
2022/07/24 08:36:14;;;;;;;;;;;;;;;28.62;42.55;99845.03;5053656;28;19971;-68
2022/07/24 08:38:42;;;;;;;;;;;;;;;28.77;42.05;99838.66;5053605;28;20366;-68
2022/07/24 08:41:10;;;;;;;;;;;;;;;28.97;42.09;99835.41;5053423;28;19925;-68
2022/07/24 08:43:39;;;;;;;;;;;;;;;29.14;42.01;99845.53;5053553;28;19975;-68
2022/07/24 08:46:09;;;;;;;;;;;;;;;29.23;40.64;99841.38;5051932;28;19925;-68
2022/07/24 08:48:43;;;;;;;;;;;;;;;29.29;40.10;99840.94;5053428;28;19955;-68
2022/07/24 08:51:13;;;;;;;;;;;;;;;29.26;40.01;99835.06;5053815;28;19924;-68
2022/07/24 08:53:43;;;;;;;;;;;;;;;29.34;40.39;99837.97;5053761;28;20370;-68
2022/07/24 08:56:12;;;;;;;;;;;;;;;29.47;39.43;99843.97;4985032;28;1946092;-67
2022/07/24 08:58:41;;;;;;;;;;;;;;;29.63;38.82;99850.59;5054847;28;20262;-69
2022/07/24 09:01:10;;;;;;;;;;;;;;;29.72;38.40;99843.78;5052925;28;20036;-68
2022/07/24 09:03:42;;;;;;;;;;;;;;;29.78;38.11;99838.06;5054039;28;19928;-68
2022/07/24 09:06:12;;;;;;;;;;;;;;;29.88;37.68;99835.53;5053744;28;19932;-68
2022/07/24 09:08:40;;;;;;;;;;;;;;;29.85;36.71;99844.53;5053738;28;19936;-68
2022/07/24 09:11:10;;;;;;;;;;;;;;;29.78;36.25;99843.31;5053782;28;19931;-67
2022/07/24 09:16:27;;;;;;;;;;;;;;;30.15;36.55;99847.41;5053687;28;20371;-67
2022/07/24 09:19:05;;;;;;;;;;;;;;;30.20;35.92;99839.97;5052692;28;19964;-68
2022/07/24 09:21:36;;;;;;;;;;;;;;;30.23;35.87;99845.03;5053424;28;19929;-68
2022/07/24 09:24:12;;;;;;;;;;;;;;;30.12;35.85;99852.06;5053504;28;19978;-68
2022/07/24 09:26:45;;;;;;;;;;;;;;;30.01;36.03;99845.03;5053630;28;20019;-68
2022/07/24 09:29:14;;;;;;;;;;;;;;;30.18;36.00;99847.19;5053917;28;19932;-68
2022/07/24 09:31:53;;;;;;;;;;;;;;;30.34;35.64;99838.91;5053291;28;19928;-68
2022/07/24 09:34:23;;;;;;;;;;;;;;;30.43;35.78;99844.28;5053586;28;19931;-68
2022/07/24 09:36:58;;;;;;;;;;;;;;;30.36;34.70;99840.47;5053938;28;19929;-68
2022/07/24 09:39:27;;;;;;;;;;;;;;;30.20;34.11;99850.53;5053328;28;19925;-67
2022/07/24 09:41:56;;;;;;;;;;;;;;;30.27;34.21;99846.44;5053265;28;19997;-68
2022/07/24 09:44:25;;;;;;;;;;;;;;;30.29;33.47;99844.53;5053354;28;19925;-67
2022/07/24 09:46:57;;;;;;;;;;;;;;;30.28;32.68;99840.19;5053183;28;19924;-67
2022/07/24 09:49:28;;;;;;;;;;;;;;;30.30;32.55;99835.66;5053197;28;19925;-67
2022/07/24 09:52:07;;;;;;;;;;;;;;;30.28;32.59;99848.09;5053218;28;19971;-68
2022/07/24 09:54:37;;;;;;;;;;;;;;;30.34;32.50;99837.13;5053543;28;20390;-68
2022/07/24 09:57:20;;;;;;;;;;;;;;;30.50;32.25;99831.44;5052887;28;19925;-67
2022/07/24 09:59:49;;;;;;;;;;;;;;;30.55;32.12;99828.47;5051484;28;20384;-68
2022/07/24 10:02:25;;;;;;;;;;;;;;;30.51;31.54;99833.13;5051470;28;19925;-68
2022/07/24 10:04:55;;;;;;;;;;;;;;;30.60;31.71;99837.66;5052649;28;19925;-68
2022/07/24 10:07:25;;;;;;;;;;;;;;;30.62;31.71;99829.66;5053081;28;20405;-68
2022/07/24 10:09:54;;;;;;;;;;;;;;;30.63;31.63;99831.31;5053392;28;19947;-68
2022/07/24 10:12:23;;;;;;;;;;;;;;;30.72;31.88;99833.19;5053282;28;19998;-68
2022/07/24 10:14:53;;;;;;;;;;;;;;;30.78;31.41;99824.78;5053442;28;19925;-69
2022/07/24 10:17:22;;;;;;;;;;;;;;;30.78;30.98;99819.53;5053293;28;19925;-68
2022/07/24 10:19:52;;;;;;;;;;;;;;;30.73;30.99;99833.06;5053122;28;20378;-68
2022/07/24 10:22:23;;;;;;;;;;;;;;;30.65;30.55;99826.75;5055541;28;19967;-68
2022/07/24 10:24:56;;;;;;;;;;;;;;;30.61;30.52;99825.31;5056903;28;19935;-67
2022/07/24 10:27:29;;;;;;;;;;;;;;;30.68;30.72;99818.59;5056836;28;19929;-68
2022/07/24 10:29:59;;;;;;;;;;;;;;;30.86;30.80;99820.56;5056929;28;19928;-68
2022/07/24 10:32:28;;;;;;;;;;;;;;;30.84;30.35;99824.28;5056576;28;20371;-68
2022/07/24 10:35:01;;;;;;;;;;;;;;;30.87;30.35;99816.13;5056599;28;19924;-68
2022/07/24 10:37:38;;;;;;;;;;;;;;;30.97;30.20;99811.81;5056625;28;19971;-68
2022/07/24 10:40:12;;;;;;;;;;;;;;;31.09;30.09;99814.25;5056926;28;20445;-68
2022/07/24 10:42:53;;;;;;;;;;;;;;;31.21;30.19;99817.69;5056217;28;20027;-68
2022/07/24 10:45:22;;;;;;;;;;;;;;;31.30;30.28;99813.41;5056444;28;19933;-68
2022/07/24 10:47:55;;;;;;;;;;;;;;;31.31;29.92;99802.75;5056669;28;19932;-66
2022/07/24 10:50:24;;;;;;;;;;;;;;;31.33;29.94;99816.66;5056552;28;20283;-68
2022/07/24 10:52:54;;;;;;;;;;;;;;;31.38;30.00;99819.75;5056255;28;19932;-68
2022/07/24 10:55:27;;;;;;;;;;;;;;;31.50;30.13;99809.97;5056709;28;19964;-68
2022/07/24 10:58:04;;;;;;;;;;;;;;;31.40;29.83;99806.41;5055910;28;20413;-69
2022/07/24 11:00:35;;;;;;;;;;;;;;;31.28;29.53;99803.00;5055859;28;20007;-67
2022/07/24 11:03:09;;;;;;;;;;;;;;;31.37;29.53;99809.28;5055874;28;19978;-68
2022/07/24 11:05:38;;;;;;;;;;;;;;;31.57;30.76;99804.03;5055718;28;19924;-68
2022/07/24 11:08:17;;;;;;;;;;;;;;;31.83;29.90;99803.59;5055803;28;19956;-68
2022/07/24 11:10:47;;;;;;;;;;;;;;;31.88;29.46;99806.66;5056113;28;20391;-68
2022/07/24 11:13:27;;;;;;;;;;;;;;;31.76;28.68;99805.94;5055662;28;19924;-69
2022/07/24 11:16:06;;;;;;;;;;;;;;;31.42;28.42;99810.59;5055841;28;20378;-69
2022/07/24 11:18:34;;;;;;;;;;;;;;;31.13;29.17;99802.47;5055559;28;19924;-67
2022/07/24 11:21:09;;;;;;;;;;;;;;;31.09;29.59;99792.31;5055675;28;19936;-68
2022/07/24 11:23:38;;;;;;;;;;;;;;;31.23;29.67;99789.34;5055380;28;19925;-68
2022/07/24 11:26:20;;;;;;;;;;;;;;;31.34;29.73;99806.94;5055542;28;19925;-68
2022/07/24 11:29:04;;;;;;;;;;;;;;;31.51;29.94;99793.16;5055855;28;20015;-67
2022/07/24 11:31:33;;;;;;;;;;;;;;;31.57;29.79;99792.66;5054907;28;19933;-68
2022/07/24 11:34:05;;;;;;;;;;;;;;;31.57;29.27;99788.22;5053566;28;19931;-68
2022/07/24 11:36:35;;;;;;;;;;;;;;;31.46;28.96;99790.09;5055390;28;19924;-69
2022/07/24 11:39:03;;;;;;;;;;;;;;;31.41;29.02;99777.22;5055689;28;20308;-68
2022/07/24 11:41:44;;;;;;;;;;;;;;;31.45;29.18;99776.06;5055480;28;19928;-68
2022/07/24 11:44:12;;;;;;;;;;;;;;;31.49;28.68;99764.25;5055575;28;19978;-68
2022/07/24 11:46:42;;;;;;;;;;;;;;;31.43;29.20;99775.34;5054991;28;19925;-68
2022/07/24 11:49:11;;;;;;;;;;;;;;;31.67;29.75;99778.50;5055527;28;20267;-68
2022/07/24 11:51:43;;;;;;;;;;;;;;;31.82;29.82;99778.16;5054932;28;19929;-68
2022/07/24 11:54:12;;;;;;;;;;;;;;;31.92;29.29;99771.09;5055263;28;20374;-67
2022/07/24 11:56:41;;;;;;;;;;;;;;;31.73;28.95;99767.44;5054737;28;19979;-68
2022/07/24 11:59:22;;;;;;;;;;;;;;;31.78;29.27;99759.09;5055274;28;19931;-68
2022/07/24 12:01:55;;;;;;;;;;;;;;;31.94;29.64;99764.72;5055153;28;20428;-68
2022/07/24 12:04:23;;;;;;;;;;;;;;;32.07;29.10;99764.50;5055196;28;19924;-68
2022/07/24 12:06:52;;;;;;;;;;;;;;;32.03;28.89;99763.13;5054578;28;19983;-67
2022/07/24 12:09:20;;;;;;;;;;;;;;;31.93;28.87;99763.06;5053729;28;19924;-68
2022/07/24 12:11:48;;;;;;;;;;;;;;;31.95;28.82;99760.25;5054647;28;19988;-68
2022/07/24 12:14:22;;;;;;;;;;;;;;;31.83;28.80;99756.06;5054680;28;19996;-68
2022/07/24 12:16:55;;;;;;;;;;;;;;;31.94;28.76;99759.44;5054589;28;19928;-68
2022/07/24 12:19:25;;;;;;;;;;;;;;;32.09;28.89;99754.63;5054946;28;20011;-68
2022/07/24 12:21:54;;;;;;;;;;;;;;;32.10;28.75;99743.09;5054546;28;20337;-68
2022/07/24 12:24:22;;;;;;;;;;;;;;;32.02;28.49;99746.41;5054697;28;19932;-69
2022/07/24 12:27:00;;;;;;;;;;;;;;;31.99;28.60;99745.84;5054455;28;20011;-68
2022/07/24 12:29:28;;;;;;;;;;;;;;;32.08;28.92;99751.16;5054889;28;20397;-67
2022/07/24 12:32:11;;;;;;;;;;;;;;;31.97;28.86;99758.31;5054483;28;19932;-68
2022/07/24 12:34:44;;;;;;;;;;;;;;;32.06;28.82;99752.28;5055154;28;20332;-68
2022/07/24 12:37:38;;;;;;;;;;;;;;;32.19;28.18;99747.56;5054487;28;19932;-69
2022/07/24 12:40:07;;;;;;;;;;;;;;;32.32;28.80;99737.59;5054413;28;19925;-69
2022/07/24 12:42:35;;;;;;;;;;;;;;;32.24;28.09;99746.19;5054650;28;19932;-68
2022/07/24 12:45:07;;;;;;;;;;;;;;;32.05;28.55;99740.03;5054302;28;19998;-69
2022/07/24 12:47:51;;;;;;;;;;;;;;;31.84;28.59;99747.19;5054541;28;19932;-68
2022/07/24 12:50:27;;;;;;;;;;;;;;;31.78;28.55;99738.81;5054446;28;19975;-67
2022/07/24 12:53:17;;;;;;;;;;;;;;;31.66;28.64;99739.88;5054193;28;19924;-69
2022/07/24 12:56:00;;;;;;;;;;;;;;;31.73;28.89;99735.75;5054126;28;20379;-69
2022/07/24 12:58:29;;;;;;;;;;;;;;;31.77;28.96;99731.84;5054363;28;20428;-69
2022/07/24 13:00:57;;;;;;;;;;;;;;;31.86;29.02;99730.22;5054191;28;19929;-69
2022/07/24 13:03:27;;;;;;;;;;;;;;;31.91;28.90;99732.47;5054281;28;20317;-69
2022/07/24 13:05:57;;;;;;;;;;;;;;;31.80;29.09;99736.88;5053912;28;19932;-69